sensor_id;sensor_type;location;lat;lon;timestamp;pressure;altitude;pressure_sealevel;temperature;humidity
60832;BME280;46665;51.558;-0.448;2023-05-02T00:01:48;101723.19;;;10.06;100.00
60832;BME280;46665;51.558;-0.448;2023-05-02T00:04:13;101722.59;;;10.04;100.00
60832;BME280;46665;51.558;-0.448;2023-05-02T00:06:39;101730.94;;;9.97;100.00
60832;BME280;46665;51.558;-0.448;2023-05-02T00:09:06;101731.13;;;9.91;100.00
60832;BME280;46665;51.558;-0.448;2023-05-02T00:11:31;101733.25;;;9.89;100.00
60832;BME280;46665;51.558;-0.448;2023-05-02T00:13:57;101730.53;;;9.89;100.00
60832;BME280;46665;51.558;-0.448;2023-05-02T00:16:22;101728.13;;;9.92;100.00
60832;BME280;46665;51.558;-0.448;2023-05-02T00:18:48;101733.25;;;9.89;100.00
60832;BME280;46665;51.558;-0.448;2023-05-02T00:21:14;101731.03;;;9.86;100.00
60832;BME280;46665;51.558;-0.448;2023-05-02T00:23:39;101739.44;;;9.84;100.00
60832;BME280;46665;51.558;-0.448;2023-05-02T00:26:08;101728.75;;;9.77;100.00
60832;BME280;46665;51.558;-0.448;2023-05-02T00:28:33;101737.97;;;9.76;100.00
60832;BME280;46665;51.558;-0.448;2023-05-02T00:30:58;101731.13;;;9.74;100.00
60832;BME280;46665;51.558;-0.448;2023-05-02T00:33:24;101734.66;;;9.74;100.00
60832;BME280;46665;51.558;-0.448;2023-05-02T00:35:49;101731.47;;;9.77;100.00
60832;BME280;46665;51.558;-0.448;2023-05-02T00:38:15;101737.72;;;9.78;100.00
60832;BME280;46665;51.558;-0.448;2023-05-02T00:40:48;101737.16;;;9.76;100.00
60832;BME280;46665;51.558;-0.448;2023-05-02T00:43:15;101731.06;;;9.69;100.00
60832;BME280;46665;51.558;-0.448;2023-05-02T00:45:42;101734.50;;;9.64;100.00
60832;BME280;46665;51.558;-0.448;2023-05-02T00:48:08;101732.66;;;9.65;100.00
60832;BME280;46665;51.558;-0.448;2023-05-02T00:50:40;101744.25;;;9.60;100.00
60832;BME280;46665;51.558;-0.448;2023-05-02T00:53:07;101729.19;;;9.52;100.00
60832;BME280;46665;51.558;-0.448;2023-05-02T00:55:33;101742.09;;;9.45;100.00
60832;BME280;46665;51.558;-0.448;2023-05-02T00:58:10;101742.84;;;9.41;100.00
60832;BME280;46665;51.558;-0.448;2023-05-02T01:00:56;101746.78;;;9.33;100.00
60832;BME280;46665;51.558;-0.448;2023-05-02T01:03:45;101745.47;;;9.36;100.00
60832;BME280;46665;51.558;-0.448;2023-05-02T01:09:41;101748.34;;;9.29;100.00
60832;BME280;46665;51.558;-0.448;2023-05-02T01:12:40;101750.59;;;9.32;100.00
60832;BME280;46665;51.558;-0.448;2023-05-02T01:15:08;101756.94;;;9.38;100.00
60832;BME280;46665;51.558;-0.448;2023-05-02T01:17:35;101762.19;;;9.44;100.00
60832;BME280;46665;51.558;-0.448;2023-05-02T01:20:04;101756.00;;;9.49;100.00
60832;BME280;46665;51.558;-0.448;2023-05-02T01:22:32;101756.94;;;9.54;100.00
60832;BME280;46665;51.558;-0.448;2023-05-02T01:27:57;101758.97;;;9.64;100.00
60832;BME280;46665;51.558;-0.448;2023-05-02T01:30:28;101760.38;;;9.67;100.00
60832;BME280;46665;51.558;-0.448;2023-05-02T01:32:56;101756.84;;;9.66;100.00
60832;BME280;46665;51.558;-0.448;2023-05-02T01:35:24;101757.66;;;9.67;100.00
60832;BME280;46665;51.558;-0.448;2023-05-02T01:37:51;101755.19;;;9.65;100.00
60832;BME280;46665;51.558;-0.448;2023-05-02T01:40:19;101765.06;;;9.71;100.00
60832;BME280;46665;51.558;-0.448;2023-05-02T01:42:49;101769.94;;;9.69;100.00
60832;BME280;46665;51.558;-0.448;2023-05-02T01:45:15;101768.53;;;9.67;100.00
60832;BME280;46665;51.558;-0.448;2023-05-02T01:47:43;101769.38;;;9.67;100.00
60832;BME280;46665;51.558;-0.448;2023-05-02T01:50:10;101757.56;;;9.62;100.00
60832;BME280;46665;51.558;-0.448;2023-05-02T01:52:38;101772.56;;;9.64;100.00
60832;BME280;46665;51.558;-0.448;2023-05-02T01:55:06;101776.13;;;9.65;100.00
60832;BME280;46665;51.558;-0.448;2023-05-02T01:57:35;101770.34;;;9.61;100.00
60832;BME280;46665;51.558;-0.448;2023-05-02T02:00:03;101780.09;;;9.57;100.00
60832;BME280;46665;51.558;-0.448;2023-05-02T02:02:32;101773.56;;;9.58;100.00
60832;BME280;46665;51.558;-0.448;2023-05-02T02:04:59;101781.41;;;9.54;100.00
60832;BME280;46665;51.558;-0.448;2023-05-02T02:07:26;101777.00;;;9.53;100.00
60832;BME280;46665;51.558;-0.448;2023-05-02T02:09:52;101794.13;;;9.54;100.00
60832;BME280;46665;51.558;-0.448;2023-05-02T02:12:31;101795.22;;;9.53;100.00
60832;BME280;46665;51.558;-0.448;2023-05-02T02:15:05;101802.13;;;9.44;100.00
60832;BME280;46665;51.558;-0.448;2023-05-02T02:17:38;101798.34;;;9.45;100.00
60832;BME280;46665;51.558;-0.448;2023-05-02T02:20:08;101817.09;;;9.46;100.00
60832;BME280;46665;51.558;-0.448;2023-05-02T02:22:37;101809.22;;;9.45;100.00
60832;BME280;46665;51.558;-0.448;2023-05-02T02:25:05;101821.22;;;9.49;100.00
60832;BME280;46665;51.558;-0.448;2023-05-02T02:27:32;101819.50;;;9.43;100.00
60832;BME280;46665;51.558;-0.448;2023-05-02T02:29:57;101812.66;;;9.40;100.00
60832;BME280;46665;51.558;-0.448;2023-05-02T02:32:23;101825.44;;;9.40;100.00
60832;BME280;46665;51.558;-0.448;2023-05-02T02:34:49;101825.66;;;9.38;100.00
60832;BME280;46665;51.558;-0.448;2023-05-02T02:37:19;101831.69;;;9.40;100.00
60832;BME280;46665;51.558;-0.448;2023-05-02T02:40:07;101839.56;;;9.42;100.00
60832;BME280;46665;51.558;-0.448;2023-05-02T02:42:43;101838.75;;;9.41;100.00
60832;BME280;46665;51.558;-0.448;2023-05-02T02:48:19;101841.41;;;9.53;100.00
60832;BME280;46665;51.558;-0.448;2023-05-02T02:51:04;101846.94;;;9.58;100.00
60832;BME280;46665;51.558;-0.448;2023-05-02T02:56:14;101856.81;;;9.64;100.00
60832;BME280;46665;51.558;-0.448;2023-05-02T03:01:10;101847.59;;;9.65;100.00
60832;BME280;46665;51.558;-0.448;2023-05-02T03:03:40;101849.34;;;9.71;100.00
60832;BME280;46665;51.558;-0.448;2023-05-02T03:06:06;101847.44;;;9.72;100.00
60832;BME280;46665;51.558;-0.448;2023-05-02T03:08:39;101858.16;;;9.79;100.00
60832;BME280;46665;51.558;-0.448;2023-05-02T03:11:05;101856.53;;;9.77;100.00
60832;BME280;46665;51.558;-0.448;2023-05-02T03:13:31;101850.72;;;9.74;100.00
60832;BME280;46665;51.558;-0.448;2023-05-02T03:16:28;101854.25;;;9.74;100.00
60832;BME280;46665;51.558;-0.448;2023-05-02T03:18:55;101872.47;;;9.74;100.00
60832;BME280;46665;51.558;-0.448;2023-05-02T03:21:21;101872.97;;;9.71;100.00
60832;BME280;46665;51.558;-0.448;2023-05-02T03:23:46;101871.88;;;9.72;100.00
60832;BME280;46665;51.558;-0.448;2023-05-02T03:26:12;101873.56;;;9.73;100.00
60832;BME280;46665;51.558;-0.448;2023-05-02T03:28:37;101878.25;;;9.77;100.00
60832;BME280;46665;51.558;-0.448;2023-05-02T03:31:03;101881.53;;;9.80;100.00
60832;BME280;46665;51.558;-0.448;2023-05-02T03:33:28;101893.25;;;9.80;100.00
60832;BME280;46665;51.558;-0.448;2023-05-02T03:35:53;101876.69;;;9.82;100.00
60832;BME280;46665;51.558;-0.448;2023-05-02T03:38:19;101875.63;;;9.83;100.00
60832;BME280;46665;51.558;-0.448;2023-05-02T03:40:44;101878.59;;;9.81;100.00
60832;BME280;46665;51.558;-0.448;2023-05-02T03:43:10;101884.25;;;9.80;100.00
60832;BME280;46665;51.558;-0.448;2023-05-02T03:45:35;101882.63;;;9.79;100.00
60832;BME280;46665;51.558;-0.448;2023-05-02T03:48:01;101890.78;;;9.79;100.00
60832;BME280;46665;51.558;-0.448;2023-05-02T03:50:27;101893.81;;;9.82;100.00
60832;BME280;46665;51.558;-0.448;2023-05-02T03:52:52;101887.25;;;9.78;100.00
60832;BME280;46665;51.558;-0.448;2023-05-02T03:55:18;101900.91;;;9.83;100.00
60832;BME280;46665;51.558;-0.448;2023-05-02T03:57:43;101899.25;;;9.82;100.00
60832;BME280;46665;51.558;-0.448;2023-05-02T04:00:09;101890.28;;;9.82;100.00
60832;BME280;46665;51.558;-0.448;2023-05-02T04:02:35;101895.22;;;9.85;100.00
60832;BME280;46665;51.558;-0.448;2023-05-02T04:05:00;101909.66;;;9.85;100.00
60832;BME280;46665;51.558;-0.448;2023-05-02T04:07:26;101907.25;;;9.89;100.00
60832;BME280;46665;51.558;-0.448;2023-05-02T04:09:51;101914.59;;;9.88;100.00
60832;BME280;46665;51.558;-0.448;2023-05-02T04:12:17;101909.75;;;9.90;100.00
60832;BME280;46665;51.558;-0.448;2023-05-02T04:14:42;101923.66;;;9.94;100.00
60832;BME280;46665;51.558;-0.448;2023-05-02T04:17:07;101909.47;;;9.92;100.00
60832;BME280;46665;51.558;-0.448;2023-05-02T04:19:33;101922.25;;;9.91;100.00
60832;BME280;46665;51.558;-0.448;2023-05-02T04:21:59;101909.47;;;9.92;100.00
60832;BME280;46665;51.558;-0.448;2023-05-02T04:24:24;101919.78;;;9.90;100.00
60832;BME280;46665;51.558;-0.448;2023-05-02T04:26:50;101922.75;;;9.88;100.00
60832;BME280;46665;51.558;-0.448;2023-05-02T04:29:15;101910.56;;;9.91;100.00
60832;BME280;46665;51.558;-0.448;2023-05-02T04:31:41;101916.31;;;9.94;100.00
60832;BME280;46665;51.558;-0.448;2023-05-02T04:34:07;101923.66;;;9.94;100.00
60832;BME280;46665;51.558;-0.448;2023-05-02T04:36:32;101925.78;;;9.92;100.00
60832;BME280;46665;51.558;-0.448;2023-05-02T04:38:58;101932.06;;;9.92;100.00
60832;BME280;46665;51.558;-0.448;2023-05-02T04:41:24;101931.22;;;9.92;100.00
60832;BME280;46665;51.558;-0.448;2023-05-02T04:43:50;101942.47;;;9.95;100.00
60832;BME280;46665;51.558;-0.448;2023-05-02T04:46:16;101945.41;;;9.94;100.00
60832;BME280;46665;51.558;-0.448;2023-05-02T04:48:44;101954.47;;;9.99;100.00
60832;BME280;46665;51.558;-0.448;2023-05-02T04:51:10;101957.47;;;9.98;100.00
60832;BME280;46665;51.558;-0.448;2023-05-02T04:53:36;101960.19;;;9.98;100.00
60832;BME280;46665;51.558;-0.448;2023-05-02T04:56:02;101964.53;;;9.99;100.00
60832;BME280;46665;51.558;-0.448;2023-05-02T04:58:27;101957.94;;;9.95;100.00
60832;BME280;46665;51.558;-0.448;2023-05-02T05:00:52;101970.22;;;9.97;100.00
60832;BME280;46665;51.558;-0.448;2023-05-02T05:03:18;101969.38;;;9.97;100.00
60832;BME280;46665;51.558;-0.448;2023-05-02T05:05:44;101971.06;;;9.98;100.00
60832;BME280;46665;51.558;-0.448;2023-05-02T05:08:09;101967.16;;;9.94;100.00
60832;BME280;46665;51.558;-0.448;2023-05-02T05:10:35;101967.50;;;9.97;100.00
60832;BME280;46665;51.558;-0.448;2023-05-02T05:13:00;101967.25;;;9.99;100.00
60832;BME280;46665;51.558;-0.448;2023-05-02T05:15:26;101968.91;;;10.00;100.00
60832;BME280;46665;51.558;-0.448;2023-05-02T05:17:51;101973.28;;;10.01;100.00
60832;BME280;46665;51.558;-0.448;2023-05-02T05:20:17;101982.63;;;10.05;100.00
60832;BME280;46665;51.558;-0.448;2023-05-02T05:22:42;101977.19;;;10.05;100.00
60832;BME280;46665;51.558;-0.448;2023-05-02T05:25:08;101976.09;;;10.06;100.00
60832;BME280;46665;51.558;-0.448;2023-05-02T05:27:34;101977.72;;;10.07;100.00
60832;BME280;46665;51.558;-0.448;2023-05-02T05:30:00;101982.72;;;10.10;100.00
60832;BME280;46665;51.558;-0.448;2023-05-02T05:32:26;101990.59;;;10.12;100.00
60832;BME280;46665;51.558;-0.448;2023-05-02T05:34:52;101994.63;;;10.09;100.00
60832;BME280;46665;51.558;-0.448;2023-05-02T05:37:20;101985.06;;;10.07;100.00
60832;BME280;46665;51.558;-0.448;2023-05-02T05:39:46;101991.91;;;10.09;100.00
60832;BME280;46665;51.558;-0.448;2023-05-02T05:42:12;102000.34;;;10.08;100.00
60832;BME280;46665;51.558;-0.448;2023-05-02T05:44:38;101998.34;;;10.03;100.00
60832;BME280;46665;51.558;-0.448;2023-05-02T05:47:04;102004.09;;;10.07;100.00
60832;BME280;46665;51.558;-0.448;2023-05-02T05:49:30;102002.47;;;10.06;100.00
60832;BME280;46665;51.558;-0.448;2023-05-02T05:51:55;102004.09;;;10.07;100.00
60832;BME280;46665;51.558;-0.448;2023-05-02T05:54:21;102011.78;;;10.10;100.00
60832;BME280;46665;51.558;-0.448;2023-05-02T05:56:46;102009.41;;;10.13;100.00
60832;BME280;46665;51.558;-0.448;2023-05-02T05:59:12;102012.94;;;10.14;100.00
60832;BME280;46665;51.558;-0.448;2023-05-02T06:01:37;102016.75;;;10.13;100.00
60832;BME280;46665;51.558;-0.448;2023-05-02T06:04:03;102029.13;;;10.20;100.00
60832;BME280;46665;51.558;-0.448;2023-05-02T06:06:29;102030.53;;;10.23;100.00
60832;BME280;46665;51.558;-0.448;2023-05-02T06:08:56;102031.94;;;10.26;100.00
60832;BME280;46665;51.558;-0.448;2023-05-02T06:11:22;102026.72;;;10.24;100.00
60832;BME280;46665;51.558;-0.448;2023-05-02T06:13:49;102034.19;;;10.29;100.00
60832;BME280;46665;51.558;-0.448;2023-05-02T06:16:15;102036.09;;;10.28;100.00
60832;BME280;46665;51.558;-0.448;2023-05-02T06:18:42;102035.81;;;10.30;100.00
60832;BME280;46665;51.558;-0.448;2023-05-02T06:21:08;102026.63;;;10.31;100.00
60832;BME280;46665;51.558;-0.448;2023-05-02T06:23:33;102034.28;;;10.34;100.00
60832;BME280;46665;51.558;-0.448;2023-05-02T06:25:59;102042.03;;;10.42;100.00
60832;BME280;46665;51.558;-0.448;2023-05-02T06:28:25;102033.88;;;10.42;100.00
60832;BME280;46665;51.558;-0.448;2023-05-02T06:31:02;102045.06;;;10.46;100.00
60832;BME280;46665;51.558;-0.448;2023-05-02T06:33:28;102051.94;;;10.48;100.00
60832;BME280;46665;51.558;-0.448;2023-05-02T06:35:54;102053.09;;;10.52;100.00
60832;BME280;46665;51.558;-0.448;2023-05-02T06:38:20;102041.06;;;10.48;100.00
60832;BME280;46665;51.558;-0.448;2023-05-02T06:40:45;102048.72;;;10.51;100.00
60832;BME280;46665;51.558;-0.448;2023-05-02T06:43:11;102046.00;;;10.51;100.00
60832;BME280;46665;51.558;-0.448;2023-05-02T06:45:37;102045.44;;;10.49;100.00
60832;BME280;46665;51.558;-0.448;2023-05-02T06:48:03;102052.50;;;10.50;100.00
60832;BME280;46665;51.558;-0.448;2023-05-02T06:50:29;102053.81;;;10.48;100.00
60832;BME280;46665;51.558;-0.448;2023-05-02T06:52:54;102054.19;;;10.51;100.00
60832;BME280;46665;51.558;-0.448;2023-05-02T06:55:20;102055.81;;;10.52;100.00
60832;BME280;46665;51.558;-0.448;2023-05-02T06:57:47;102072.97;;;10.53;100.00
60832;BME280;46665;51.558;-0.448;2023-05-02T07:00:13;102061.34;;;10.57;100.00
60832;BME280;46665;51.558;-0.448;2023-05-02T07:02:38;102063.00;;;10.58;100.00
60832;BME280;46665;51.558;-0.448;2023-05-02T07:05:04;102064.97;;;10.63;100.00
60832;BME280;46665;51.558;-0.448;2023-05-02T07:07:30;102063.41;;;10.67;100.00
60832;BME280;46665;51.558;-0.448;2023-05-02T07:09:55;102071.06;;;10.70;100.00
60832;BME280;46665;51.558;-0.448;2023-05-02T07:12:21;102076.88;;;10.74;100.00
60832;BME280;46665;51.558;-0.448;2023-05-02T07:14:46;102059.22;;;10.76;100.00
60832;BME280;46665;51.558;-0.448;2023-05-02T07:17:11;102060.63;;;10.79;100.00
60832;BME280;46665;51.558;-0.448;2023-05-02T07:19:37;102070.44;;;10.80;100.00
60832;BME280;46665;51.558;-0.448;2023-05-02T07:22:02;102073.22;;;10.85;100.00
60832;BME280;46665;51.558;-0.448;2023-05-02T07:24:28;102073.00;;;10.87;100.00
60832;BME280;46665;51.558;-0.448;2023-05-02T07:26:54;102069.41;;;10.86;100.00
60832;BME280;46665;51.558;-0.448;2023-05-02T07:29:19;102065.06;;;10.85;100.00
60832;BME280;46665;51.558;-0.448;2023-05-02T07:31:45;102069.78;;;10.90;100.00
60832;BME280;46665;51.558;-0.448;2023-05-02T07:34:10;102071.09;;;10.87;100.00
60832;BME280;46665;51.558;-0.448;2023-05-02T07:36:35;102071.69;;;10.89;100.00
60832;BME280;46665;51.558;-0.448;2023-05-02T07:39:01;102076.03;;;10.90;100.00
60832;BME280;46665;51.558;-0.448;2023-05-02T07:41:26;102073.91;;;10.92;100.00
60832;BME280;46665;51.558;-0.448;2023-05-02T07:43:52;102079.06;;;10.94;100.00
60832;BME280;46665;51.558;-0.448;2023-05-02T07:46:17;102084.88;;;10.97;100.00
60832;BME280;46665;51.558;-0.448;2023-05-02T07:48:42;102081.91;;;10.99;100.00
60832;BME280;46665;51.558;-0.448;2023-05-02T07:51:09;102078.19;;;11.05;100.00
60832;BME280;46665;51.558;-0.448;2023-05-02T07:53:35;102082.81;;;11.04;100.00
60832;BME280;46665;51.558;-0.448;2023-05-02T07:56:02;102079.06;;;11.11;100.00
60832;BME280;46665;51.558;-0.448;2023-05-02T07:58:29;102081.88;;;11.16;100.00
60832;BME280;46665;51.558;-0.448;2023-05-02T08:00:54;102078.63;;;11.19;100.00
60832;BME280;46665;51.558;-0.448;2023-05-02T08:03:19;102078.63;;;11.19;100.00
60832;BME280;46665;51.558;-0.448;2023-05-02T08:05:45;102073.69;;;11.16;100.00
60832;BME280;46665;51.558;-0.448;2023-05-02T08:08:11;102087.41;;;11.21;100.00
60832;BME280;46665;51.558;-0.448;2023-05-02T08:10:36;102090.88;;;11.16;100.00
60832;BME280;46665;51.558;-0.448;2023-05-02T08:13:01;102089.72;;;11.12;100.00
60832;BME280;46665;51.558;-0.448;2023-05-02T08:15:27;102090.31;;;11.14;100.00
60832;BME280;46665;51.558;-0.448;2023-05-02T08:17:52;102088.91;;;11.12;100.00
60832;BME280;46665;51.558;-0.448;2023-05-02T08:20:18;102089.88;;;11.05;100.00
60832;BME280;46665;51.558;-0.448;2023-05-02T08:22:43;102098.72;;;11.13;100.00
60832;BME280;46665;51.558;-0.448;2023-05-02T08:25:09;102095.50;;;11.16;100.00
60832;BME280;46665;51.558;-0.448;2023-05-02T08:27:34;102087.41;;;11.21;100.00
60832;BME280;46665;51.558;-0.448;2023-05-02T08:29:59;102094.06;;;11.30;100.00
60832;BME280;46665;51.558;-0.448;2023-05-02T08:32:25;102086.22;;;11.34;100.00
60832;BME280;46665;51.558;-0.448;2023-05-02T08:34:54;102094.97;;;11.36;100.00
60832;BME280;46665;51.558;-0.448;2023-05-02T08:37:20;102109.25;;;11.43;100.00
60832;BME280;46665;51.558;-0.448;2023-05-02T08:39:45;102109.75;;;11.40;100.00
60832;BME280;46665;51.558;-0.448;2023-05-02T08:42:11;102112.22;;;11.41;100.00
60832;BME280;46665;51.558;-0.448;2023-05-02T08:44:37;102114.13;;;11.41;100.00
60832;BME280;46665;51.558;-0.448;2023-05-02T08:47:02;102122.06;;;11.42;100.00
60832;BME280;46665;51.558;-0.448;2023-05-02T08:49:30;102116.25;;;11.39;100.00
60832;BME280;46665;51.558;-0.448;2023-05-02T08:51:57;102118.81;;;11.45;100.00
60832;BME280;46665;51.558;-0.448;2023-05-02T08:54:24;102126.84;;;11.52;100.00
60832;BME280;46665;51.558;-0.448;2023-05-02T08:56:52;102131.13;;;11.48;100.00
60832;BME280;46665;51.558;-0.448;2023-05-02T08:59:18;102143.44;;;11.50;100.00
60832;BME280;46665;51.558;-0.448;2023-05-02T09:01:51;102138.56;;;11.53;100.00
60832;BME280;46665;51.558;-0.448;2023-05-02T09:04:21;102138.88;;;11.56;100.00
60832;BME280;46665;51.558;-0.448;2023-05-02T09:06:48;102143.34;;;11.62;100.00
60832;BME280;46665;51.558;-0.448;2023-05-02T09:09:13;102137.59;;;11.64;100.00
60832;BME280;46665;51.558;-0.448;2023-05-02T09:11:39;102152.13;;;11.69;100.00
60832;BME280;46665;51.558;-0.448;2023-05-02T09:14:14;102163.09;;;11.75;100.00
60832;BME280;46665;51.558;-0.448;2023-05-02T09:16:40;102170.22;;;11.76;100.00
60832;BME280;46665;51.558;-0.448;2023-05-02T09:19:05;102154.94;;;11.75;100.00
60832;BME280;46665;51.558;-0.448;2023-05-02T09:21:35;102152.47;;;11.73;100.00
60832;BME280;46665;51.558;-0.448;2023-05-02T09:24:18;102148.66;;;11.74;100.00
60832;BME280;46665;51.558;-0.448;2023-05-02T09:27:01;102154.09;;;11.74;100.00
60832;BME280;46665;51.558;-0.448;2023-05-02T09:29:28;102154.69;;;11.76;100.00
60832;BME280;46665;51.558;-0.448;2023-05-02T09:32:01;102162.63;;;11.78;100.00
60832;BME280;46665;51.558;-0.448;2023-05-02T09:34:27;102165.00;;;11.74;100.00
60832;BME280;46665;51.558;-0.448;2023-05-02T09:36:53;102171.22;;;11.69;100.00
60832;BME280;46665;51.558;-0.448;2023-05-02T09:39:23;102170.25;;;11.59;100.00
60832;BME280;46665;51.558;-0.448;2023-05-02T09:41:49;102175.47;;;11.60;100.00
60832;BME280;46665;51.558;-0.448;2023-05-02T09:44:16;102166.72;;;11.58;100.00
60832;BME280;46665;51.558;-0.448;2023-05-02T09:46:47;102176.06;;;11.62;100.00
60832;BME280;46665;51.558;-0.448;2023-05-02T09:49:13;102176.13;;;11.67;100.00
60832;BME280;46665;51.558;-0.448;2023-05-02T09:51:39;102169.88;;;11.72;100.00
60832;BME280;46665;51.558;-0.448;2023-05-02T09:54:05;102166.69;;;11.75;100.00
60832;BME280;46665;51.558;-0.448;2023-05-02T09:56:31;102165.59;;;11.76;100.00
60832;BME280;46665;51.558;-0.448;2023-05-02T09:59:12;102165.66;;;11.81;100.00
60832;BME280;46665;51.558;-0.448;2023-05-02T10:01:42;102160.72;;;11.78;100.00
60832;BME280;46665;51.558;-0.448;2023-05-02T10:04:12;102170.59;;;11.84;100.00
60832;BME280;46665;51.558;-0.448;2023-05-02T10:06:43;102179.16;;;11.88;100.00
60832;BME280;46665;51.558;-0.448;2023-05-02T10:09:09;102170.59;;;11.84;100.00
60832;BME280;46665;51.558;-0.448;2023-05-02T10:11:37;102186.97;;;11.84;100.00
60832;BME280;46665;51.558;-0.448;2023-05-02T10:14:07;102183.44;;;11.84;100.00
60832;BME280;46665;51.558;-0.448;2023-05-02T10:16:36;102176.34;;;11.83;100.00
60832;BME280;46665;51.558;-0.448;2023-05-02T10:19:06;102188.00;;;11.78;100.00
60832;BME280;46665;51.558;-0.448;2023-05-02T10:21:33;102186.00;;;11.74;100.00
60832;BME280;46665;51.558;-0.448;2023-05-02T10:24:00;102193.19;;;11.80;100.00
60832;BME280;46665;51.558;-0.448;2023-05-02T10:26:29;102196.25;;;11.83;100.00
60832;BME280;46665;51.558;-0.448;2023-05-02T10:28:56;102188.63;;;11.85;100.00
60832;BME280;46665;51.558;-0.448;2023-05-02T10:31:21;102187.06;;;11.89;100.00
60832;BME280;46665;51.558;-0.448;2023-05-02T10:33:50;102189.88;;;11.95;100.00
60832;BME280;46665;51.558;-0.448;2023-05-02T10:36:20;102191.25;;;11.97;100.00
60832;BME280;46665;51.558;-0.448;2023-05-02T10:38:47;102189.38;;;11.98;100.00
60832;BME280;46665;51.558;-0.448;2023-05-02T10:41:24;102199.22;;;11.99;100.00
60832;BME280;46665;51.558;-0.448;2023-05-02T10:43:51;102195.91;;;11.97;100.00
60832;BME280;46665;51.558;-0.448;2023-05-02T10:46:34;102202.44;;;11.96;98.84
60832;BME280;46665;51.558;-0.448;2023-05-02T10:49:10;102216.66;;;11.98;100.00
60832;BME280;46665;51.558;-0.448;2023-05-02T10:51:38;102210.56;;;11.90;100.00
60832;BME280;46665;51.558;-0.448;2023-05-02T10:57:13;102221.94;;;11.87;100.00
60832;BME280;46665;51.558;-0.448;2023-05-02T10:59:40;102227.50;;;11.76;100.00
60832;BME280;46665;51.558;-0.448;2023-05-02T11:05:07;102227.31;;;11.82;100.00
60832;BME280;46665;51.558;-0.448;2023-05-02T11:07:34;102230.63;;;11.84;100.00
60832;BME280;46665;51.558;-0.448;2023-05-02T11:12:50;102229.06;;;11.88;100.00
60832;BME280;46665;51.558;-0.448;2023-05-02T11:18:06;102225.41;;;12.00;100.00
60832;BME280;46665;51.558;-0.448;2023-05-02T11:20:36;102209.09;;;12.05;98.51
60832;BME280;46665;51.558;-0.448;2023-05-02T11:23:23;102219.38;;;12.20;99.40
60832;BME280;46665;51.558;-0.448;2023-05-02T11:31:04;102208.34;;;12.53;95.76
60832;BME280;46665;51.558;-0.448;2023-05-02T11:33:30;102210.09;;;12.65;94.44
60832;BME280;46665;51.558;-0.448;2023-05-02T11:35:55;102217.34;;;12.81;93.53
60832;BME280;46665;51.558;-0.448;2023-05-02T11:38:22;102224.59;;;12.92;92.51
60832;BME280;46665;51.558;-0.448;2023-05-02T11:40:49;102228.19;;;12.98;90.36
60832;BME280;46665;51.558;-0.448;2023-05-02T11:43:17;102236.19;;;13.05;89.55
60832;BME280;46665;51.558;-0.448;2023-05-02T11:45:43;102243.03;;;13.07;91.73
60832;BME280;46665;51.558;-0.448;2023-05-02T11:48:11;102234.88;;;13.12;90.04
60832;BME280;46665;51.558;-0.448;2023-05-02T11:50:41;102240.06;;;13.14;89.14
60832;BME280;46665;51.558;-0.448;2023-05-02T11:53:10;102244.19;;;13.16;88.55
60832;BME280;46665;51.558;-0.448;2023-05-02T11:55:36;102244.78;;;13.18;87.76
60832;BME280;46665;51.558;-0.448;2023-05-02T11:58:02;102254.59;;;13.14;88.37
60832;BME280;46665;51.558;-0.448;2023-05-02T12:00:27;102254.59;;;13.14;90.37
60832;BME280;46665;51.558;-0.448;2023-05-02T12:02:53;102265.28;;;13.21;88.63
60832;BME280;46665;51.558;-0.448;2023-05-02T12:05:27;102261.50;;;13.22;87.96
60832;BME280;46665;51.558;-0.448;2023-05-02T12:07:54;102259.53;;;13.17;86.80
60832;BME280;46665;51.558;-0.448;2023-05-02T12:10:19;102264.13;;;13.12;86.23
60832;BME280;46665;51.558;-0.448;2023-05-02T12:12:45;102268.25;;;13.14;85.85
60832;BME280;46665;51.558;-0.448;2023-05-02T12:15:11;102260.88;;;13.15;85.57
60832;BME280;46665;51.558;-0.448;2023-05-02T12:17:39;102266.63;;;13.18;86.32
60832;BME280;46665;51.558;-0.448;2023-05-02T12:20:08;102260.09;;;13.19;85.12
60832;BME280;46665;51.558;-0.448;2023-05-02T12:22:34;102251.34;;;13.17;84.56
60832;BME280;46665;51.558;-0.448;2023-05-02T12:24:59;102254.69;;;13.25;84.67
60832;BME280;46665;51.558;-0.448;2023-05-02T12:27:25;102266.75;;;13.29;83.38
60832;BME280;46665;51.558;-0.448;2023-05-02T12:29:52;102260.22;;;13.30;83.95
60832;BME280;46665;51.558;-0.448;2023-05-02T12:32:32;102261.91;;;13.36;82.97
60832;BME280;46665;51.558;-0.448;2023-05-02T12:34:58;102265.81;;;13.45;83.44
60832;BME280;46665;51.558;-0.448;2023-05-02T12:37:25;102259.34;;;13.56;82.80
60832;BME280;46665;51.558;-0.448;2023-05-02T12:39:51;102262.75;;;13.74;83.48
60832;BME280;46665;51.558;-0.448;2023-05-02T12:42:19;102258.72;;;13.86;81.14
60832;BME280;46665;51.558;-0.448;2023-05-02T12:44:46;102270.09;;;14.05;80.52
60832;BME280;46665;51.558;-0.448;2023-05-02T12:47:16;102256.69;;;14.14;79.03
60832;BME280;46665;51.558;-0.448;2023-05-02T12:52:15;102257.31;;;14.26;78.58
60832;BME280;46665;51.558;-0.448;2023-05-02T12:54:40;102262.59;;;14.38;77.73
60832;BME280;46665;51.558;-0.448;2023-05-02T12:57:06;102265.88;;;14.45;78.33
60832;BME280;46665;51.558;-0.448;2023-05-02T12:59:32;102257.41;;;14.52;76.30
60832;BME280;46665;51.558;-0.448;2023-05-02T13:01:58;102255.78;;;14.51;75.11
60832;BME280;46665;51.558;-0.448;2023-05-02T13:04:37;102253.34;;;14.55;75.48
60832;BME280;46665;51.558;-0.448;2023-05-02T13:07:04;102250.38;;;14.66;74.82
60832;BME280;46665;51.558;-0.448;2023-05-02T13:09:29;102243.81;;;14.72;73.76
60832;BME280;46665;51.558;-0.448;2023-05-02T13:11:55;102241.91;;;14.83;74.49